首页
METAR-TAF:

METAR-TAF

机场 :

里斯本, 葡萄牙

温贝托·德尔加多机场

纬度: 38-46N, 经度: 009-08W, 海拔: 114米

当前天气观测

该预报发布于21分钟前的22:00 UTC
风速17节,风向北转西北
温度 14°C
湿度 77%
气压 1018 hPa
能见度10公里或以上
1500米以下无云,无积雨云

METAR: LPPT 252200Z 34017KT CAVOK 14/10 Q1018 WS R03

时间: 23:21 (22:21 UTC)

预报

该预报发布于5小时和21分钟前的17:00 UTC
预报有效从25日的 18点(UTC)到 26日的 24点(UTC)
风速17节,风向北转西北
能见度10公里或以上
1500米以下无云,无积雨云
短暂存在
从 25日的 18点(UTC)到 25日的 24点(UTC)
风速22节,风向北转西北,有时为35节阵风
成为
从 26日的 06点(UTC)到 26日的 09点(UTC)
风速7节,风向北转西北
成为
从 26日的 10点(UTC)到 26日的 12点(UTC)
风速13节,风向北转西北

TAF: LPPT 251700Z 2518/2624 33017KT CAVOK TEMPO 2518/2524 33022G35KT BECMG 2606/2609 33007KT BECMG 2610/2612 33013KT

超过4000个机场的气象观测和天气预报(METAR&TAF报告)。

可查询的气象台以黄色和红色小点在地图上表示。

将鼠标移到小点上方,可查看气象台名称。

然后点击查看天气观测和预报。

如需切换地图:点击带黑十字的绿色按钮放大地图;点击带横线的绿色按钮缩小地图;或者点击绿色箭头查看邻近地区的地图。


METAR-TAF: